BHS316 MYNN-MYGF
Flight info
| Callsign | BHS316 |
|---|---|
| Flight time | N/A |
| Altitude | 17000 |
| Route | BURBO |
| Aircraft | B737/M-SDGIRWYZ/S |
Departure
| Time | N/A |
|---|---|
| Airport | Lynden Pindling International Airport (MYNN) |
Arrival
| Time | 2026-04-29 12:51 |
|---|---|
| Airport | Grand Bahama International Airport (MYGF) |
| Time | Latitude | Longitude | Altitude | Speed | Heading |
|---|---|---|---|---|---|
| 2026-04-29 12:51 | 26.54855 | -78.69674 | 21 ft | 0 kts | 272° |
| 2026-04-29 13:26 | 26.54855 | -78.69675 | 20 ft | 1 kts | 272° |
| 2026-04-29 13:27 | 26.54891 | -78.69723 | 20 ft | 18 kts | 302° |
| 2026-04-29 13:27 | 26.54912 | -78.69944 | 19 ft | 39 kts | 271° |
| 2026-04-29 13:27 | 26.54922 | -78.70217 | 19 ft | 22 kts | 297° |
| 2026-04-29 13:27 | 26.54968 | -78.70383 | 18 ft | 27 kts | 271° |
| 2026-04-29 13:28 | 26.54975 | -78.70647 | 20 ft | 36 kts | 271° |
| 2026-04-29 13:28 | 26.54982 | -78.70919 | 20 ft | 24 kts | 271° |
| 2026-04-29 13:28 | 26.55027 | -78.71008 | 20 ft | 13 kts | 355° |
| 2026-04-29 13:28 | 26.55118 | -78.71002 | 20 ft | 12 kts | 11° |
| 2026-04-29 13:29 | 26.55183 | -78.70931 | 20 ft | 23 kts | 61° |
| 2026-04-29 13:29 | 26.55422 | -78.70453 | 17 ft | 114 kts | 61° |
| 2026-04-29 13:29 | 26.55916 | -78.69449 | 258 ft | 166 kts | 62° |
| 2026-04-29 13:29 | 26.56511 | -78.68279 | 1024 ft | 184 kts | 62° |
| 2026-04-29 13:30 | 26.57170 | -78.67018 | 1893 ft | 196 kts | 62° |
| 2026-04-29 13:30 | 26.57613 | -78.65635 | 2801 ft | 198 kts | 90° |
| 2026-04-29 13:30 | 26.57128 | -78.64185 | 3510 ft | 213 kts | 132° |
| 2026-04-29 13:30 | 26.55955 | -78.63097 | 4235 ft | 230 kts | 139° |
| 2026-04-29 13:31 | 26.54764 | -78.61783 | 4987 ft | 248 kts | 131° |
| 2026-04-29 13:31 | 26.53577 | -78.60325 | 5740 ft | 265 kts | 131° |
| 2026-04-29 13:31 | 26.52305 | -78.58785 | 6591 ft | 278 kts | 131° |